createdAt,value
2024-05-09T00:01:48.277Z,0.10
2024-05-09T00:04:37.080Z,0.10
2024-05-09T00:07:25.689Z,0.13
2024-05-09T00:10:22.464Z,0.20
2024-05-09T00:13:20.094Z,0.10
2024-05-09T00:16:09.822Z,0.20
2024-05-09T00:18:58.569Z,0.10
2024-05-09T00:21:47.251Z,0.10
2024-05-09T00:24:35.401Z,0.10
2024-05-09T00:27:24.062Z,0.10
2024-05-09T00:30:24.150Z,0.10
2024-05-09T00:33:20.868Z,0.10
2024-05-09T00:36:10.124Z,0.10
2024-05-09T00:38:58.659Z,0.10
2024-05-09T00:41:46.852Z,0.10
2024-05-09T00:44:35.430Z,0.10
2024-05-09T00:47:27.019Z,0.10
2024-05-09T00:50:19.580Z,0.10
2024-05-09T00:53:15.986Z,0.10
2024-05-09T00:56:04.833Z,0.10
2024-05-09T00:58:54.195Z,0.10
2024-05-09T01:01:44.146Z,0.10
2024-05-09T01:04:35.783Z,0.20
2024-05-09T01:07:24.331Z,0.20
2024-05-09T01:10:17.442Z,0.10
2024-05-09T01:13:12.989Z,0.10
2024-05-09T01:16:01.851Z,0.20
2024-05-09T01:18:50.442Z,0.20
2024-05-09T01:21:43.408Z,0.10
2024-05-09T01:24:34.717Z,0.10
2024-05-09T01:27:23.900Z,0.10
2024-05-09T01:30:17.316Z,0.10
2024-05-09T01:33:11.887Z,0.10
2024-05-09T01:36:01.688Z,0.10
2024-05-09T01:38:50.211Z,0.10
2024-05-09T01:41:41.362Z,0.10
2024-05-09T01:44:29.734Z,0.10
2024-05-09T01:47:18.371Z,0.10
2024-05-09T01:50:10.706Z,0.10
2024-05-09T01:52:59.633Z,0.20
2024-05-09T01:55:48.325Z,0.20
2024-05-09T01:58:39.594Z,0.20
2024-05-09T02:01:27.946Z,0.10
2024-05-09T02:04:16.898Z,0.10
2024-05-09T02:07:05.922Z,0.10
2024-05-09T02:09:54.784Z,0.20
2024-05-09T02:12:43.544Z,0.10
2024-05-09T02:15:34.723Z,0.20
2024-05-09T02:18:23.690Z,0.20
2024-05-09T02:21:12.519Z,0.20
2024-05-09T02:24:01.416Z,0.10
2024-05-09T02:26:50.110Z,0.10
2024-05-09T02:29:38.708Z,0.10
2024-05-09T02:32:30.043Z,0.10
2024-05-09T02:35:18.643Z,0.10
2024-05-09T02:38:07.713Z,0.20
2024-05-09T02:40:53.659Z,0.10
2024-05-09T02:43:42.317Z,0.20
2024-05-09T02:46:28.319Z,0.10
2024-05-09T02:49:19.703Z,0.10
2024-05-09T02:52:06.194Z,0.10
2024-05-09T02:54:54.776Z,0.10
2024-05-09T02:57:40.951Z,0.20
2024-05-09T03:00:37.250Z,0.20
2024-05-09T03:03:27.024Z,0.10
2024-05-09T03:06:18.330Z,0.10
2024-05-09T03:09:04.976Z,0.20
2024-05-09T03:11:54.633Z,0.10
2024-05-09T03:14:40.618Z,0.20
2024-05-09T03:17:29.317Z,0.10
2024-05-09T03:20:23.187Z,0.10
2024-05-09T03:23:15.586Z,0.20
2024-05-09T03:26:01.407Z,0.10
2024-05-09T03:28:50.721Z,0.10
2024-05-09T03:31:37.577Z,0.10
2024-05-09T03:34:26.004Z,0.20
2024-05-09T03:37:14.471Z,0.20
2024-05-09T03:40:14.516Z,0.10
2024-05-09T03:43:07.828Z,0.10
2024-05-09T03:45:58.244Z,0.10
2024-05-09T03:48:44.403Z,0.20
2024-05-09T03:51:32.797Z,0.10
2024-05-09T03:54:18.909Z,0.10
2024-05-09T03:57:10.316Z,0.10
2024-05-09T03:59:56.134Z,0.10
2024-05-09T04:02:46.168Z,0.10
2024-05-09T04:05:33.113Z,0.10
2024-05-09T04:08:22.050Z,0.10
2024-05-09T04:11:08.133Z,0.10
2024-05-09T04:13:59.306Z,0.10
2024-05-09T04:16:45.340Z,0.10
2024-05-09T04:19:34.030Z,0.10
2024-05-09T04:22:22.531Z,0.10
2024-05-09T04:25:08.573Z,0.20
2024-05-09T04:27:57.198Z,0.10
2024-05-09T04:30:45.979Z,0.10
2024-05-09T04:33:34.855Z,0.20
2024-05-09T04:36:20.941Z,0.10
2024-05-09T04:39:09.552Z,0.10
2024-05-09T04:41:55.757Z,0.10
2024-05-09T04:44:44.358Z,0.10
2024-05-09T04:47:35.042Z,0.10
2024-05-09T04:50:33.562Z,0.10
2024-05-09T04:53:24.078Z,0.10
2024-05-09T04:56:12.780Z,0.10
2024-05-09T04:58:58.678Z,0.10
2024-05-09T05:01:47.502Z,0.10
2024-05-09T05:04:36.323Z,0.10
2024-05-09T05:07:25.070Z,0.10
2024-05-09T05:10:15.069Z,0.13
2024-05-09T05:13:20.770Z,0.10
2024-05-09T05:16:11.237Z,0.10
2024-05-09T05:18:57.439Z,0.10
2024-05-09T05:21:48.604Z,0.20
2024-05-09T05:24:35.051Z,0.10
2024-05-09T05:27:23.594Z,0.10
2024-05-09T05:30:17.529Z,0.10
2024-05-09T05:33:12.659Z,0.10
2024-05-09T05:35:58.513Z,0.10
2024-05-09T05:38:49.952Z,0.10
2024-05-09T05:41:35.978Z,0.10
2024-05-09T05:44:24.682Z,0.10
2024-05-09T05:47:10.985Z,0.10
2024-05-09T05:49:59.566Z,0.10
2024-05-09T05:52:45.491Z,0.10
2024-05-09T05:55:36.760Z,0.10
2024-05-09T05:58:22.646Z,0.10
2024-05-09T06:01:11.066Z,0.10
2024-05-09T06:03:57.317Z,0.10
2024-05-09T06:06:45.713Z,0.10
2024-05-09T06:09:31.932Z,0.13
2024-05-09T06:12:25.356Z,0.10
2024-05-09T06:15:11.501Z,0.10
2024-05-09T06:18:00.336Z,0.20
2024-05-09T06:20:46.706Z,0.10
2024-05-09T06:23:35.498Z,0.10
2024-05-09T06:26:21.653Z,0.13
2024-05-09T06:29:14.192Z,0.10
2024-05-09T06:32:01.773Z,0.10
2024-05-09T06:34:50.390Z,0.10
2024-05-09T06:37:36.990Z,0.10
2024-05-09T06:40:34.191Z,0.10
2024-05-09T06:43:26.473Z,0.10
2024-05-09T06:46:15.280Z,0.10
2024-05-09T06:49:08.541Z,0.10
2024-05-09T06:51:54.937Z,0.10
2024-05-09T06:54:43.939Z,0.10
2024-05-09T06:57:30.951Z,0.10
2024-05-09T07:00:27.425Z,0.17
2024-05-09T07:03:23.888Z,0.10
2024-05-09T07:06:12.511Z,0.10
2024-05-09T07:08:58.501Z,0.10
2024-05-09T07:11:47.254Z,0.10
2024-05-09T07:14:38.140Z,0.10
2024-05-09T07:17:26.361Z,0.10
2024-05-09T07:20:23.691Z,0.10
2024-05-09T07:23:19.070Z,0.10
2024-05-09T07:26:07.995Z,0.10
2024-05-09T07:28:53.885Z,0.10
2024-05-09T07:31:42.418Z,0.10
2024-05-09T07:34:28.474Z,0.10
2024-05-09T07:37:19.722Z,0.10
2024-05-09T07:40:07.689Z,0.10
2024-05-09T07:42:56.336Z,0.10
2024-05-09T07:45:51.267Z,0.10
2024-05-09T07:53:08.326Z,0.10
2024-05-09T07:54:43.105Z,0.10
2024-05-09T07:57:29.359Z,0.10
2024-05-09T08:00:23.781Z,0.10
2024-05-09T08:03:15.696Z,0.10
2024-05-09T08:06:04.246Z,0.10
2024-05-09T08:08:50.207Z,0.10
2024-05-09T08:11:41.546Z,0.10
2024-05-09T08:14:27.579Z,0.10
2024-05-09T08:17:16.265Z,0.10
2024-05-09T08:20:04.383Z,0.10
2024-05-09T08:22:53.700Z,0.10
2024-05-09T08:25:39.827Z,0.10
2024-05-09T08:28:31.127Z,0.10
2024-05-09T08:31:17.004Z,0.10
2024-05-09T08:34:06.856Z,0.10
2024-05-09T08:36:57.576Z,0.10
2024-05-09T08:39:46.195Z,0.10
2024-05-09T08:42:35.644Z,0.10
2024-05-09T08:45:27.100Z,0.10
2024-05-09T08:48:15.160Z,0.10
2024-05-09T08:51:04.651Z,0.10
2024-05-09T08:53:57.265Z,0.10
2024-05-09T08:56:50.485Z,0.10
2024-05-09T08:59:52.381Z,0.10
2024-05-09T09:02:48.559Z,0.20
2024-05-09T09:05:37.717Z,0.10
2024-05-09T09:08:27.373Z,0.10
2024-05-09T09:11:13.601Z,0.10
2024-05-09T09:14:02.536Z,0.10
2024-05-09T09:16:48.504Z,0.10
2024-05-09T09:19:40.511Z,0.10
2024-05-09T09:22:27.445Z,0.10
2024-05-09T09:25:16.313Z,0.10
2024-05-09T09:28:03.428Z,0.10
2024-05-09T09:30:51.892Z,0.10
2024-05-09T09:33:45.024Z,0.10
2024-05-09T09:36:36.390Z,0.10
2024-05-09T09:39:30.456Z,0.10
2024-05-09T09:42:18.514Z,0.10
2024-05-09T09:45:08.239Z,0.10
2024-05-09T09:47:56.894Z,0.10
2024-05-09T09:50:46.457Z,0.10
2024-05-09T09:53:39.220Z,0.10
2024-05-09T09:56:26.428Z,0.10
2024-05-09T09:59:16.171Z,0.10
2024-05-09T10:02:02.580Z,0.10
2024-05-09T10:04:52.353Z,0.10
2024-05-09T10:07:42.058Z,0.10
2024-05-09T10:10:36.362Z,0.10
2024-05-09T10:13:33.326Z,0.03
2024-05-09T10:16:24.137Z,0.10
2024-05-09T10:19:10.530Z,0.10
2024-05-09T10:22:06.273Z,0.10
2024-05-09T10:24:54.052Z,0.10
2024-05-09T10:27:45.299Z,0.10
2024-05-09T10:30:35.947Z,0.10
2024-05-09T10:33:25.625Z,0.10
2024-05-09T10:36:12.245Z,0.05
2024-05-09T10:39:02.259Z,0.10
2024-05-09T10:41:49.334Z,0.10
2024-05-09T10:44:42.961Z,0.10
2024-05-09T10:47:29.712Z,0.05
2024-05-09T10:50:25.480Z,0.10
2024-05-09T10:53:14.693Z,0.10
2024-05-09T10:56:04.274Z,0.10
2024-05-09T10:58:52.143Z,0.00
2024-05-09T11:01:43.745Z,0.10
2024-05-09T11:04:29.881Z,0.10
2024-05-09T11:07:21.631Z,0.10
2024-05-09T11:10:12.489Z,0.00
2024-05-09T11:13:03.260Z,0.00
2024-05-09T11:15:49.091Z,0.00
2024-05-09T11:18:40.554Z,0.00
2024-05-09T11:21:27.130Z,0.00
2024-05-09T11:24:15.816Z,0.00
2024-05-09T11:27:03.251Z,0.00
2024-05-09T11:29:52.394Z,0.00
2024-05-09T11:32:38.492Z,0.00
2024-05-09T11:35:29.804Z,0.00
2024-05-09T11:38:15.748Z,0.00
2024-05-09T11:41:04.759Z,0.10
2024-05-09T11:43:50.594Z,0.10
2024-05-09T11:46:39.223Z,0.10
2024-05-09T11:49:26.905Z,0.00
2024-05-09T11:52:18.074Z,0.00
2024-05-09T11:55:04.107Z,0.00
2024-05-09T11:57:52.944Z,0.00
2024-05-09T12:00:39.381Z,0.00
2024-05-09T12:03:27.766Z,0.00
2024-05-09T12:06:14.036Z,0.00
2024-05-09T12:09:05.355Z,0.00
2024-05-09T12:11:51.238Z,0.00
2024-05-09T12:14:39.724Z,0.00
2024-05-09T12:17:25.894Z,0.00
2024-05-09T12:20:21.431Z,0.00
2024-05-09T12:23:15.368Z,0.00
2024-05-09T12:26:06.957Z,0.00
2024-05-09T12:28:52.976Z,0.00
2024-05-09T12:31:41.738Z,0.00
2024-05-09T12:34:27.712Z,0.00
2024-05-09T12:37:16.720Z,0.00
2024-05-09T12:40:03.781Z,0.00
2024-05-09T12:42:56.294Z,0.00
2024-05-09T12:45:42.347Z,0.00
2024-05-09T12:48:30.932Z,0.00
2024-05-09T12:51:16.808Z,0.00
2024-05-09T12:54:05.396Z,0.00
2024-05-09T12:56:51.643Z,0.00
2024-05-09T12:59:44.779Z,0.00
2024-05-09T13:02:33.548Z,0.00
2024-05-09T13:05:19.542Z,0.00
2024-05-09T13:08:09.036Z,0.00
2024-05-09T13:10:55.270Z,0.00
2024-05-09T13:13:43.737Z,0.00
2024-05-09T13:16:32.384Z,0.00
2024-05-09T13:19:21.304Z,0.00
2024-05-09T13:22:07.451Z,0.00
2024-05-09T13:24:56.027Z,0.00
2024-05-09T13:27:41.999Z,0.00
2024-05-09T13:30:39.116Z,0.00
2024-05-09T13:33:30.307Z,0.00
2024-05-09T13:36:18.715Z,0.00
2024-05-09T13:39:04.818Z,0.00
2024-05-09T13:41:53.371Z,0.00
2024-05-09T13:44:39.553Z,0.00
2024-05-09T13:47:28.520Z,0.00
2024-05-09T13:50:27.784Z,0.00
2024-05-09T13:53:22.158Z,0.00
2024-05-09T13:56:08.892Z,0.00
2024-05-09T13:58:57.571Z,0.00
2024-05-09T14:01:43.565Z,0.00
2024-05-09T14:04:32.540Z,0.00
2024-05-09T14:07:21.419Z,0.00
2024-05-09T14:10:19.818Z,0.00
2024-05-09T14:13:11.825Z,0.00
2024-05-09T14:16:00.574Z,0.00
2024-05-09T14:18:46.835Z,0.00
2024-05-09T14:21:35.583Z,0.00
2024-05-09T14:24:24.177Z,0.00
2024-05-09T14:27:12.818Z,0.00
2024-05-09T14:29:58.840Z,0.00
2024-05-09T14:32:47.458Z,0.00
2024-05-09T14:35:33.360Z,0.00
2024-05-09T14:38:22.129Z,0.00
2024-05-09T14:41:13.240Z,0.00
2024-05-09T14:44:02.028Z,0.00
2024-05-09T14:46:48.222Z,0.00
2024-05-09T14:49:36.914Z,0.00
2024-05-09T14:52:22.690Z,0.10
2024-05-09T14:55:12.387Z,0.00
2024-05-09T14:58:00.885Z,0.00
2024-05-09T15:00:51.351Z,0.00
2024-05-09T15:03:40.897Z,0.00
2024-05-09T15:06:26.942Z,0.00
2024-05-09T15:09:15.604Z,0.00
2024-05-09T15:12:01.742Z,0.10
2024-05-09T15:14:52.975Z,0.00
2024-05-09T15:17:39.595Z,0.00
2024-05-09T15:20:34.598Z,0.03
2024-05-09T15:23:22.430Z,0.10
2024-05-09T15:26:11.289Z,0.10
2024-05-09T15:28:57.110Z,0.10
2024-05-09T15:31:48.386Z,0.10
2024-05-09T15:34:34.630Z,0.10
2024-05-09T15:37:23.118Z,0.10
2024-05-09T15:40:15.274Z,0.10
2024-05-09T15:43:11.922Z,0.10
2024-05-09T15:45:58.276Z,0.10
2024-05-09T15:48:49.688Z,0.10
2024-05-09T15:51:35.926Z,0.10
2024-05-09T15:54:25.574Z,0.10
2024-05-09T15:57:12.292Z,0.10
2024-05-09T16:00:01.215Z,0.08
2024-05-09T16:02:47.162Z,0.10
2024-05-09T16:05:38.847Z,0.10
2024-05-09T16:08:25.140Z,0.10
2024-05-09T16:11:16.925Z,0.10
2024-05-09T16:14:03.237Z,0.10
2024-05-09T16:16:53.282Z,0.10
2024-05-09T16:19:39.877Z,0.10
2024-05-09T16:22:31.346Z,0.10
2024-05-09T16:25:18.324Z,0.10
2024-05-09T16:28:10.497Z,0.10
2024-05-09T16:30:58.254Z,0.10
2024-05-09T16:33:47.385Z,0.10
2024-05-09T16:36:33.294Z,0.10
2024-05-09T16:39:24.734Z,0.10
2024-05-09T16:42:10.994Z,0.10
2024-05-09T16:44:59.617Z,0.10
2024-05-09T16:47:45.738Z,0.10
2024-05-09T16:50:35.908Z,0.10
2024-05-09T16:53:23.347Z,0.10
2024-05-09T16:56:15.209Z,0.10
2024-05-09T16:59:01.174Z,0.10
2024-05-09T17:01:49.966Z,0.20
2024-05-09T17:04:36.098Z,0.17
2024-05-09T17:07:24.802Z,0.10
2024-05-09T17:10:19.372Z,0.10
2024-05-09T17:13:18.147Z,0.10
2024-05-09T17:16:07.996Z,0.13
2024-05-09T17:18:56.796Z,0.10
2024-05-09T17:21:42.717Z,0.10
2024-05-09T17:24:31.274Z,0.10
2024-05-09T17:27:17.260Z,0.10
2024-05-09T17:30:12.607Z,0.20
2024-05-09T17:33:01.665Z,0.10
2024-05-09T17:35:51.458Z,0.10
2024-05-09T17:38:37.574Z,0.10
2024-05-09T17:41:26.773Z,0.20
2024-05-09T17:44:13.062Z,0.10
2024-05-09T17:47:05.002Z,0.20
2024-05-09T17:49:51.039Z,0.15
2024-05-09T17:52:40.254Z,0.20
2024-05-09T17:55:26.099Z,0.20
2024-05-09T17:58:15.566Z,0.10
2024-05-09T18:01:01.451Z,0.10
2024-05-09T18:03:52.736Z,0.10
2024-05-09T18:06:39.081Z,0.10
2024-05-09T18:09:27.950Z,0.10
2024-05-09T18:12:14.035Z,0.10
2024-05-09T18:15:02.612Z,0.20
2024-05-09T18:17:48.794Z,0.20
2024-05-09T18:20:44.260Z,0.20
2024-05-09T18:23:32.602Z,0.15
2024-05-09T18:26:21.425Z,0.10
2024-05-09T18:29:10.647Z,0.20
2024-05-09T18:31:59.467Z,0.10
2024-05-09T18:34:45.474Z,0.20
2024-05-09T18:37:36.871Z,0.20
2024-05-09T18:40:31.246Z,0.10
2024-05-09T18:43:28.782Z,0.10
2024-05-09T18:46:20.783Z,0.20
2024-05-09T18:49:09.599Z,0.20
2024-05-09T18:51:56.088Z,0.20
2024-05-09T18:54:47.886Z,0.10
2024-05-09T18:57:33.947Z,0.20
2024-05-09T19:00:33.035Z,0.10
2024-05-09T19:03:23.154Z,0.20
2024-05-09T19:06:11.947Z,0.20
2024-05-09T19:08:58.690Z,0.20
2024-05-09T19:11:49.742Z,0.10
2024-05-09T19:14:35.656Z,0.20
2024-05-09T19:17:24.732Z,0.20
2024-05-09T19:20:20.583Z,0.10
2024-05-09T19:23:16.600Z,0.20
2024-05-09T19:26:05.563Z,0.20
2024-05-09T19:28:54.260Z,0.20
2024-05-09T19:31:43.025Z,0.10
2024-05-09T19:34:29.193Z,0.20
2024-05-09T19:37:17.682Z,0.20
2024-05-09T19:40:06.775Z,0.10
2024-05-09T19:42:57.053Z,0.10
2024-05-09T19:45:46.908Z,0.20
2024-05-09T19:48:35.452Z,0.20
2024-05-09T19:51:21.608Z,0.10
2024-05-09T19:54:10.726Z,0.10
2024-05-09T19:56:56.995Z,0.10
2024-05-09T19:59:45.758Z,0.10
2024-05-09T20:02:34.599Z,0.20
2024-05-09T20:05:23.690Z,0.20
2024-05-09T20:08:09.603Z,0.10
2024-05-09T20:10:59.591Z,0.20
2024-05-09T20:13:45.417Z,0.20
2024-05-09T20:16:34.256Z,0.10
2024-05-09T20:19:23.042Z,0.10
2024-05-09T20:22:11.891Z,0.20
2024-05-09T20:25:00.280Z,0.10
2024-05-09T20:27:46.420Z,0.20
2024-05-09T20:30:36.215Z,0.20
2024-05-09T20:33:22.538Z,0.10
2024-05-09T20:36:13.764Z,0.10
2024-05-09T20:38:59.794Z,0.20
2024-05-09T20:41:48.514Z,0.20
2024-05-09T20:44:34.803Z,0.10
2024-05-09T20:47:23.157Z,0.20
2024-05-09T20:50:20.590Z,0.10
2024-05-09T20:53:17.216Z,0.10
2024-05-09T20:56:05.946Z,0.10
2024-05-09T20:58:51.817Z,0.10
2024-05-09T21:01:40.509Z,0.20
2024-05-09T21:04:26.808Z,0.20
2024-05-09T21:07:15.346Z,0.20
2024-05-09T21:10:08.133Z,0.20
2024-05-09T21:13:02.568Z,0.20
2024-05-09T21:15:49.589Z,0.20
2024-05-09T21:18:38.443Z,0.17
2024-05-09T21:21:24.611Z,0.20
2024-05-09T21:24:13.212Z,0.20
2024-05-09T21:27:01.835Z,0.10
2024-05-09T21:29:50.320Z,0.20
2024-05-09T21:32:36.442Z,0.10
2024-05-09T21:35:25.072Z,0.20
2024-05-09T21:38:11.174Z,0.20
2024-05-09T21:41:00.391Z,0.20
2024-05-09T21:43:49.121Z,0.20
2024-05-09T21:46:38.121Z,0.20
2024-05-09T21:49:24.160Z,0.20
2024-05-09T21:52:12.868Z,0.20
2024-05-09T21:54:59.445Z,0.10
2024-05-09T21:57:48.116Z,0.20
2024-05-09T22:00:39.331Z,0.10
2024-05-09T22:03:28.278Z,0.10
2024-05-09T22:06:14.463Z,0.20
2024-05-09T22:09:05.342Z,0.20
2024-05-09T22:11:52.946Z,0.10
2024-05-09T22:14:42.217Z,0.17
2024-05-09T22:17:30.958Z,0.20
2024-05-09T22:20:28.577Z,0.17
2024-05-09T22:23:20.590Z,0.20
2024-05-09T22:26:09.161Z,0.10
2024-05-09T22:28:54.866Z,0.20
2024-05-09T22:31:43.628Z,0.20
2024-05-09T22:34:35.019Z,0.10
2024-05-09T22:37:20.837Z,0.10
2024-05-09T22:40:14.977Z,0.20
2024-05-09T22:43:04.859Z,0.10
2024-05-09T22:45:54.586Z,0.20
2024-05-09T22:48:40.987Z,0.20
2024-05-09T22:51:32.231Z,0.20
2024-05-09T22:54:18.314Z,0.20
2024-05-09T22:57:07.427Z,0.10
2024-05-09T22:59:53.218Z,0.20
2024-05-09T23:02:41.945Z,0.17
2024-05-09T23:05:28.393Z,0.10
2024-05-09T23:08:19.931Z,0.10
2024-05-09T23:11:05.989Z,0.20
2024-05-09T23:13:54.843Z,0.20
2024-05-09T23:16:42.491Z,0.20
2024-05-09T23:19:31.056Z,0.10
2024-05-09T23:22:17.127Z,0.13
2024-05-09T23:25:08.835Z,0.20
2024-05-09T23:27:54.899Z,0.20
2024-05-09T23:30:43.753Z,0.20
2024-05-09T23:33:29.923Z,0.10
2024-05-09T23:36:18.389Z,0.20
2024-05-09T23:39:05.388Z,0.20
2024-05-09T23:41:56.715Z,0.10
2024-05-09T23:44:42.583Z,0.10
2024-05-09T23:47:31.401Z,0.20
2024-05-09T23:50:23.935Z,0.10
2024-05-09T23:53:19.635Z,0.10
2024-05-09T23:56:06.683Z,0.20
2024-05-09T23:58:58.059Z,0.10
